Time;durP1;ratioP1;P1;durP2;ratioP2;P2;SDS_P1;SDS_P2;PMS_P1;PMS_P2;Temp;Humidity;BMP_temperature;BMP_pressure;BME280_temperature;BME280_humidity;BME280_pressure;Samples;Min_cycle;Max_cycle;Signal;HPM_P1;HPM_P2
2020/12/18 00:01:09;;;;;;;12.63;9.07;;;2.60;99.90;;;;;;4974017;28;20457;-88
2020/12/18 00:03:37;;;;;;;15.57;10.30;;;2.70;99.90;;;;;;4976762;28;20514;-87
2020/12/18 00:06:03;;;;;;;16.93;10.03;;;2.60;99.90;;;;;;4976639;28;20454;-85
2020/12/18 00:08:30;;;;;;;15.33;10.20;;;2.60;99.90;;;;;;4975014;28;20553;-87
2020/12/18 00:10:56;;;;;;;11.70;8.93;;;;;;;;;;4976263;28;20464;-85
2020/12/18 00:13:22;;;;;;;14.00;9.03;;;2.70;99.90;;;;;;4976265;28;20449;-85
2020/12/18 00:15:49;;;;;;;12.27;8.93;;;;;;;;;;4976719;28;20456;-86
2020/12/18 00:18:15;;;;;;;15.93;9.00;;;2.30;99.90;;;;;;4976655;28;20954;-87
2020/12/18 00:20:42;;;;;;;9.40;7.97;;;2.50;99.90;;;;;;4976654;28;20456;-86
2020/12/18 00:23:09;;;;;;;11.40;8.10;;;;;;;;;;4975362;28;20460;-88
2020/12/18 00:25:35;;;;;;;12.00;8.47;;;;;;;;;;4976391;28;20461;-89
2020/12/18 00:28:02;;;;;;;11.90;8.90;;;;;;;;;;4975853;28;20502;-85
2020/12/18 00:30:29;;;;;;;13.93;9.60;;;;;;;;;;4976221;28;20452;-87
2020/12/18 00:32:55;;;;;;;13.87;9.10;;;2.30;99.90;;;;;;4976202;28;20465;-86
2020/12/18 00:35:21;;;;;;;12.97;8.93;;;2.30;99.90;;;;;;4976214;28;20446;-86
2020/12/18 00:37:48;;;;;;;10.80;8.30;;;2.40;99.90;;;;;;4974968;28;20543;-87
2020/12/18 00:40:15;;;;;;;9.60;8.00;;;;;;;;;;4976014;28;21026;-86
2020/12/18 00:42:41;;;;;;;9.77;8.77;;;2.20;99.90;;;;;;4975765;28;20454;-86
2020/12/18 00:45:08;;;;;;;11.13;7.70;;;;;;;;;;4976247;28;20455;-86
2020/12/18 00:47:34;;;;;;;13.00;9.30;;;2.10;99.90;;;;;;4975827;28;20811;-86
2020/12/18 00:50:00;;;;;;;14.13;9.17;;;;;;;;;;4975909;28;20507;-86
2020/12/18 00:52:27;;;;;;;13.10;9.37;;;;;;;;;;4974866;28;20458;-87
2020/12/18 00:54:54;;;;;;;13.37;9.10;;;2.20;99.90;;;;;;4975849;28;20462;-88
2020/12/18 00:57:20;;;;;;;12.73;9.20;;;2.00;99.90;;;;;;4975423;28;20487;-86
2020/12/18 00:59:46;;;;;;;11.43;8.57;;;1.50;99.90;;;;;;4975803;28;20521;-87
2020/12/18 01:02:13;;;;;;;14.40;9.50;;;;;;;;;;4971511;28;20915;-87
2020/12/18 01:04:40;;;;;;;11.20;9.00;;;;;;;;;;4975839;28;20457;-89
2020/12/18 01:07:07;;;;;;;13.30;8.47;;;;;;;;;;4974534;28;20489;-88
2020/12/18 01:09:33;;;;;;;11.07;8.07;;;1.90;99.90;;;;;;4975403;28;21001;-86
2020/12/18 01:12:01;;;;;;;11.10;8.27;;;2.00;99.90;;;;;;4975092;28;20457;-87
2020/12/18 01:14:27;;;;;;;11.97;8.57;;;2.00;99.90;;;;;;4972522;28;20813;-88
2020/12/18 01:16:54;;;;;;;13.60;9.50;;;1.90;99.90;;;;;;4975401;28;20454;-85
2020/12/18 01:19:21;;;;;;;13.10;8.80;;;2.10;99.90;;;;;;4973544;28;20460;-88
2020/12/18 01:21:49;;;;;;;12.53;8.17;;;1.70;99.90;;;;;;4974159;28;20454;-86
2020/12/18 01:24:19;;;;;;;10.47;8.20;;;;;;;;;;4971095;28;20450;-87
2020/12/18 01:26:45;;;;;;;17.30;9.40;;;1.70;99.90;;;;;;4974776;28;20530;-86
2020/12/18 01:29:12;;;;;;;13.40;8.70;;;2.00;99.90;;;;;;4974560;28;20505;-88
2020/12/18 01:31:39;;;;;;;10.97;8.50;;;;;;;;;;4971707;28;20967;-88
2020/12/18 01:34:06;;;;;;;13.33;9.43;;;;;;;;;;4973141;28;20466;-88
2020/12/18 01:36:32;;;;;;;13.30;9.23;;;;;;;;;;4974655;28;20466;-87
2020/12/18 01:38:59;;;;;;;11.63;9.10;;;;;;;;;;4973545;28;20461;-88
2020/12/18 01:41:25;;;;;;;12.17;8.43;;;2.10;99.90;;;;;;4974603;28;20504;-86
2020/12/18 01:43:52;;;;;;;11.63;8.87;;;;;;;;;;4970446;28;20875;-87
2020/12/18 01:46:20;;;;;;;11.57;9.13;;;2.30;99.90;;;;;;4974761;28;20962;-85
2020/12/18 01:48:47;;;;;;;16.60;9.37;;;2.10;99.90;;;;;;4974591;28;20525;-87
2020/12/18 01:51:14;;;;;;;10.60;8.70;;;;;;;;;;4974479;28;20454;-86
2020/12/18 01:53:41;;;;;;;11.93;8.50;;;2.10;99.90;;;;;;4973424;28;20455;-84
2020/12/18 01:56:08;;;;;;;15.47;10.47;;;2.50;99.90;;;;;;4974474;28;20820;-87
2020/12/18 01:58:37;;;;;;;13.13;9.70;;;2.40;99.90;;;;;;4974286;28;20944;-87
2020/12/18 02:01:06;;;;;;;12.00;9.43;;;2.60;99.90;;;;;;4969240;28;20513;-87
2020/12/18 02:03:34;;;;;;;11.43;8.87;;;2.80;99.90;;;;;;4974244;28;20537;-87
2020/12/18 02:06:05;;;;;;;12.53;9.37;;;2.60;99.90;;;;;;4970241;28;20485;-85
2020/12/18 02:08:31;;;;;;;14.90;9.47;;;2.40;99.90;;;;;;4972937;28;20928;-86
2020/12/18 02:10:58;;;;;;;12.10;9.47;;;;;;;;;;4974196;28;20458;-85
2020/12/18 02:13:25;;;;;;;11.17;9.13;;;2.00;99.90;;;;;;4966289;28;20454;-87
2020/12/18 02:15:52;;;;;;;12.93;8.70;;;2.60;99.90;;;;;;4973995;28;20456;-87
2020/12/18 02:18:20;;;;;;;14.20;9.87;;;2.60;99.90;;;;;;4970216;28;20460;-86
2020/12/18 02:20:48;;;;;;;10.70;8.60;;;3.20;99.90;;;;;;4973829;28;20946;-87
2020/12/18 02:23:14;;;;;;;13.87;8.70;;;2.40;99.90;;;;;;4968085;28;20452;-88
2020/12/18 02:25:42;;;;;;;12.60;8.97;;;2.90;99.90;;;;;;4973929;28;20462;-86
2020/12/18 02:28:11;;;;;;;13.60;9.50;;;2.80;99.90;;;;;;4973860;28;20522;-86
2020/12/18 02:30:37;;;;;;;12.03;9.13;;;2.20;99.90;;;;;;4973966;28;20458;-85
2020/12/18 02:33:05;;;;;;;14.87;9.00;;;2.40;99.90;;;;;;4973788;28;20491;-88
2020/12/18 02:35:32;;;;;;;10.67;8.50;;;2.60;99.90;;;;;;4973691;28;20458;-87
2020/12/18 02:37:58;;;;;;;15.13;9.73;;;2.70;99.90;;;;;;4972640;28;20458;-87
2020/12/18 02:40:25;;;;;;;13.23;9.77;;;3.00;99.90;;;;;;4973538;28;20993;-86
2020/12/18 02:42:51;;;;;;;13.50;9.30;;;3.10;99.90;;;;;;4974073;28;20478;-87
2020/12/18 02:45:19;;;;;;;11.50;9.80;;;3.50;99.90;;;;;;4974027;28;20470;-87
2020/12/18 02:47:45;;;;;;;16.50;10.80;;;3.20;99.90;;;;;;4973962;28;20458;-86
2020/12/18 02:50:12;;;;;;;14.40;9.30;;;2.90;99.90;;;;;;4968666;28;20452;-87
2020/12/18 02:52:38;;;;;;;11.03;8.50;;;;;;;;;;4972554;28;20458;-86
2020/12/18 02:55:05;;;;;;;15.30;9.70;;;;;;;;;;4973716;28;20819;-86
2020/12/18 02:57:32;;;;;;;11.13;9.47;;;;;;;;;;4973840;28;20451;-87
2020/12/18 02:59:58;;;;;;;23.13;10.83;;;;;;;;;;4973402;28;20461;-89
2020/12/18 03:02:25;;;;;;;14.13;9.63;;;3.00;99.90;;;;;;4970694;28;20463;-87
2020/12/18 03:04:52;;;;;;;12.80;9.07;;;;;;;;;;4973537;28;20456;-85
2020/12/18 03:07:19;;;;;;;19.70;10.40;;;;;;;;;;4972263;28;20473;-86
2020/12/18 03:09:45;;;;;;;12.80;9.60;;;2.90;99.90;;;;;;4973356;28;21007;-87
2020/12/18 03:12:12;;;;;;;12.87;9.10;;;;;;;;;;4973446;28;20453;-84
2020/12/18 03:14:38;;;;;;;12.13;9.17;;;;;;;;;;4973636;28;20456;-85
2020/12/18 03:17:04;;;;;;;12.10;9.70;;;3.10;99.90;;;;;;4973597;28;20462;-88
2020/12/18 03:19:32;;;;;;;14.80;10.10;;;3.70;99.90;;;;;;4973286;28;20456;-86
2020/12/18 03:21:58;;;;;;;13.53;10.70;;;3.20;99.90;;;;;;4972273;28;20445;-86
2020/12/18 03:24:25;;;;;;;11.67;9.20;;;;;;;;;;4973527;28;20451;-86
2020/12/18 03:26:51;;;;;;;13.70;10.23;;;3.80;99.90;;;;;;4973772;28;20445;-87
2020/12/18 03:29:17;;;;;;;14.90;10.03;;;3.50;99.90;;;;;;4969621;28;20501;-86
2020/12/18 03:31:43;;;;;;;16.63;10.57;;;3.80;99.90;;;;;;4973588;28;20460;-86
2020/12/18 03:34:10;;;;;;;12.33;9.50;;;3.90;99.90;;;;;;4972638;28;20457;-86
2020/12/18 03:36:37;;;;;;;13.80;10.03;;;3.70;99.90;;;;;;4977237;28;20456;-86
2020/12/18 03:39:05;;;;;;;13.60;9.97;;;3.30;99.90;;;;;;4976125;28;21014;-87
2020/12/18 03:41:32;;;;;;;12.20;10.63;;;;;;;;;;4977061;28;20452;-87
2020/12/18 03:43:58;;;;;;;13.17;9.70;;;3.80;99.90;;;;;;4977199;28;20819;-86
2020/12/18 03:46:25;;;;;;;12.40;9.13;;;;;;;;;;4977208;28;20448;-86
2020/12/18 03:48:51;;;;;;;12.47;9.73;;;3.20;99.90;;;;;;4976991;28;20508;-87
2020/12/18 03:51:17;;;;;;;19.27;9.77;;;3.70;99.90;;;;;;4976899;28;20451;-85
2020/12/18 03:53:44;;;;;;;11.87;9.00;;;3.80;99.90;;;;;;4973194;28;20458;-87
2020/12/18 03:56:11;;;;;;;12.17;9.60;;;;;;;;;;4976927;28;20464;-86
2020/12/18 03:58:37;;;;;;;15.70;11.10;;;3.90;99.90;;;;;;4976918;28;20778;-87
2020/12/18 04:01:04;;;;;;;15.43;9.57;;;;;;;;;;4976829;28;20462;-87
2020/12/18 04:03:30;;;;;;;11.57;9.43;;;3.70;99.90;;;;;;4976957;28;20457;-86
2020/12/18 04:05:57;;;;;;;12.60;9.47;;;4.50;99.90;;;;;;4973936;28;20438;-87
2020/12/18 04:08:23;;;;;;;15.30;9.83;;;;;;;;;;4975182;28;20481;-86
2020/12/18 04:10:51;;;;;;;10.43;9.10;;;4.00;99.90;;;;;;4976644;28;20493;-86
2020/12/18 04:13:17;;;;;;;14.33;10.07;;;;;;;;;;4976595;28;20485;-85
2020/12/18 04:15:43;;;;;;;12.63;10.40;;;3.60;99.90;;;;;;4976741;28;20449;-88
2020/12/18 04:18:10;;;;;;;11.47;9.60;;;4.10;99.90;;;;;;4976543;28;20961;-86
2020/12/18 04:20:37;;;;;;;12.10;9.10;;;4.00;99.90;;;;;;4976519;28;20592;-87
2020/12/18 04:23:03;;;;;;;12.20;8.90;;;3.80;99.90;;;;;;4975331;28;20448;-85
2020/12/18 04:25:30;;;;;;;16.83;9.63;;;;;;;;;;4976702;28;20453;-86
2020/12/18 04:27:57;;;;;;;12.97;10.23;;;4.00;99.90;;;;;;4976667;28;20445;-86
2020/12/18 04:30:23;;;;;;;11.63;9.77;;;4.30;99.90;;;;;;4976355;28;20470;-86
2020/12/18 04:32:49;;;;;;;11.63;9.47;;;3.90;99.90;;;;;;4976198;28;20940;-86
2020/12/18 04:35:16;;;;;;;14.00;10.57;;;;;;;;;;4976039;28;20454;-87
2020/12/18 04:37:42;;;;;;;11.37;9.07;;;;;;;;;;4974914;28;20967;-88
2020/12/18 04:40:09;;;;;;;15.10;11.23;;;4.20;99.90;;;;;;4976189;28;20478;-87
2020/12/18 04:42:35;;;;;;;14.67;10.77;;;4.30;99.90;;;;;;4976123;28;20453;-86
2020/12/18 04:45:03;;;;;;;13.77;10.67;;;4.60;99.90;;;;;;4975758;28;20803;-85
2020/12/18 04:47:32;;;;;;;13.60;10.70;;;4.30;99.90;;;;;;4976054;28;20450;-87
2020/12/18 04:50:00;;;;;;;15.20;11.30;;;4.40;99.90;;;;;;4976025;28;20505;-87
2020/12/18 04:52:29;;;;;;;16.37;10.40;;;4.40;99.90;;;;;;4974724;28;20459;-86
2020/12/18 04:54:59;;;;;;;13.73;10.63;;;4.40;99.90;;;;;;4975903;28;20509;-87
2020/12/18 04:57:28;;;;;;;13.40;10.80;;;4.40;99.90;;;;;;4975760;28;20977;-87
2020/12/18 04:59:55;;;;;;;11.43;10.20;;;4.30;99.90;;;;;;4976025;28;20817;-86
2020/12/18 05:02:23;;;;;;;12.47;10.40;;;4.30;99.90;;;;;;4975859;28;20451;-87
2020/12/18 05:04:50;;;;;;;14.27;9.80;;;4.30;99.90;;;;;;4975636;28;20935;-86
2020/12/18 05:07:16;;;;;;;13.23;10.03;;;;;;;;;;4974605;28;20960;-86
2020/12/18 05:09:44;;;;;;;15.30;11.20;;;4.40;99.90;;;;;;4972516;28;20562;-87
2020/12/18 05:12:10;;;;;;;15.50;12.23;;;3.90;99.90;;;;;;4975758;28;20466;-87
2020/12/18 05:14:37;;;;;;;18.17;12.20;;;;;;;;;;4975516;28;20456;-86
2020/12/18 05:17:07;;;;;;;13.17;10.30;;;4.20;99.90;;;;;;4975486;28;20496;-85
2020/12/18 05:19:37;;;;;;;11.90;9.90;;;4.40;99.90;;;;;;4975305;28;20455;-86
2020/12/18 05:22:05;;;;;;;17.50;10.10;;;4.50;99.90;;;;;;4974268;28;20454;-86
2020/12/18 05:24:32;;;;;;;13.67;11.00;;;;;;;;;;4972539;28;20443;-86
2020/12/18 05:27:00;;;;;;;14.57;10.80;;;4.30;99.90;;;;;;4975250;28;20502;-85
2020/12/18 05:29:27;;;;;;;13.23;10.90;;;4.10;99.90;;;;;;4975069;28;20494;-87
2020/12/18 05:31:56;;;;;;;14.63;10.77;;;4.40;99.90;;;;;;4975029;28;20852;-85
2020/12/18 05:34:23;;;;;;;14.70;11.07;;;;;;;;;;4975155;28;20454;-86
2020/12/18 05:36:50;;;;;;;15.17;10.47;;;4.30;99.90;;;;;;4974436;28;20537;-85
2020/12/18 05:39:16;;;;;;;12.13;10.77;;;4.60;99.90;;;;;;4974496;28;20477;-87
2020/12/18 05:41:44;;;;;;;15.90;10.60;;;4.60;99.90;;;;;;4974966;28;20453;-86
2020/12/18 05:44:11;;;;;;;12.70;9.80;;;4.60;99.90;;;;;;4974795;28;20457;-86
2020/12/18 05:46:40;;;;;;;10.73;9.63;;;4.30;99.90;;;;;;4974954;28;20885;-86
2020/12/18 05:49:07;;;;;;;12.17;10.10;;;4.70;99.90;;;;;;4974820;28;20912;-86
2020/12/18 05:51:36;;;;;;;18.37;12.37;;;5.00;99.90;;;;;;4974716;28;20781;-86
2020/12/18 05:54:12;;;;;;;27.40;16.60;;;4.90;99.90;;;;;;4984434;28;20453;-87
2020/12/18 05:56:39;;;;;;;24.70;14.77;;;4.90;99.90;;;;;;4981670;28;20443;-86
2020/12/18 05:59:08;;;;;;;21.33;13.67;;;4.80;99.90;;;;;;4979743;28;20452;-87
2020/12/18 06:01:39;;;;;;;15.20;10.93;;;4.80;99.90;;;;;;4984229;28;20447;-86
2020/12/18 06:04:10;;;;;;;14.20;9.60;;;4.90;99.90;;;;;;4978713;28;20461;-86
2020/12/18 06:06:42;;;;;;;17.10;11.00;;;5.20;99.90;;;;;;4982829;28;20480;-86
2020/12/18 06:09:10;;;;;;;17.63;10.70;;;5.20;99.90;;;;;;4978742;28;20501;-85
2020/12/18 06:11:37;;;;;;;11.97;9.23;;;4.60;99.90;;;;;;4984030;28;20449;-86
2020/12/18 06:14:05;;;;;;;13.63;9.60;;;4.90;99.90;;;;;;4982544;28;20441;-88
2020/12/18 06:16:35;;;;;;;10.80;8.37;;;4.90;99.90;;;;;;4983736;28;20453;-87
2020/12/18 06:19:04;;;;;;;11.97;9.00;;;4.70;99.90;;;;;;4982180;28;20450;-87
2020/12/18 06:21:31;;;;;;;10.37;8.43;;;4.60;99.90;;;;;;4980910;28;20454;-86
2020/12/18 06:23:58;;;;;;;12.53;9.43;;;;;;;;;;4983985;28;20957;-86
2020/12/18 06:26:27;;;;;;;12.50;9.60;;;4.50;99.90;;;;;;4982554;28;20840;-88
2020/12/18 06:28:53;;;;;;;14.00;9.70;;;4.50;99.90;;;;;;4985056;28;20482;-85
2020/12/18 06:31:27;;;;;;;11.07;8.90;;;4.60;99.90;;;;;;4982532;28;20456;-87
2020/12/18 06:33:55;;;;;;;11.83;9.10;;;4.70;99.90;;;;;;4981663;28;20451;-85
2020/12/18 06:36:56;;;;;;;10.60;9.50;;;4.70;99.90;;;;;;4982219;28;20447;-87
2020/12/18 06:39:24;;;;;;;13.07;9.43;;;5.00;99.90;;;;;;4976180;28;20498;-86
2020/12/18 06:42:09;;;;;;;15.23;9.97;;;4.50;99.90;;;;;;4978657;28;20446;-86
2020/12/18 06:44:36;;;;;;;12.60;9.40;;;4.60;99.90;;;;;;4982405;28;20451;-87
2020/12/18 06:47:10;;;;;;;11.87;9.17;;;4.70;99.90;;;;;;4980143;28;20443;-89
2020/12/18 06:50:02;;;;;;;11.40;9.13;;;4.60;99.90;;;;;;4984281;28;20494;-86
2020/12/18 06:52:47;;;;;;;17.53;15.07;;;4.40;99.90;;;;;;4971655;28;20448;-86
2020/12/18 06:55:15;;;;;;;12.67;10.97;;;4.80;99.90;;;;;;4981111;28;20517;-88
2020/12/18 06:57:43;;;;;;;12.97;11.10;;;4.60;99.90;;;;;;4982030;28;20469;-86
2020/12/18 07:00:32;;;;;;;14.63;10.53;;;4.60;99.90;;;;;;4979261;28;20451;-89
2020/12/18 07:02:58;;;;;;;13.07;10.27;;;;;;;;;;4981655;28;20972;-88
2020/12/18 07:05:33;;;;;;;14.03;10.50;;;4.50;99.90;;;;;;4984471;28;20440;-87
2020/12/18 07:08:01;;;;;;;11.10;8.80;;;4.60;99.90;;;;;;4983214;28;20984;-90
2020/12/18 07:10:29;;;;;;;13.17;10.13;;;4.50;99.90;;;;;;4996969;28;21039;-87
2020/12/18 07:12:58;;;;;;;12.43;9.57;;;4.60;99.90;;;;;;4997280;28;20449;-88
2020/12/18 07:15:45;;;;;;;13.67;10.80;;;4.30;99.90;;;;;;4997244;28;20869;-89
2020/12/18 07:18:14;;;;;;;14.40;9.90;;;4.80;99.90;;;;;;4997251;28;20465;-89
2020/12/18 07:20:45;;;;;;;14.87;10.20;;;4.50;99.90;;;;;;4997290;28;20446;-88
2020/12/18 07:23:12;;;;;;;15.53;11.00;;;4.40;99.90;;;;;;4993524;28;20453;-90
2020/12/18 07:25:38;;;;;;;12.07;9.00;;;;;;;;;;4997047;28;20446;-88
2020/12/18 07:28:06;;;;;;;14.80;10.13;;;4.40;99.90;;;;;;4996878;28;20454;-87
2020/12/18 07:30:32;;;;;;;11.70;9.07;;;6.30;99.90;;;;;;4996868;28;20545;-88
2020/12/18 07:32:59;;;;;;;14.03;10.07;;;4.30;99.90;;;;;;4996900;28;20453;-87
2020/12/18 07:35:27;;;;;;;11.77;9.67;;;4.60;99.90;;;;;;4996697;28;20481;-88
2020/12/18 07:37:53;;;;;;;13.77;10.17;;;4.40;99.90;;;;;;4989832;28;20466;-87
2020/12/18 07:40:20;;;;;;;16.97;11.53;;;;;;;;;;4993411;28;20447;-87
2020/12/18 07:42:46;;;;;;;13.63;10.80;;;4.40;99.90;;;;;;4996497;28;20824;-88
2020/12/18 07:45:14;;;;;;;13.50;10.90;;;4.60;99.90;;;;;;4996404;28;20551;-89
2020/12/18 07:47:43;;;;;;;16.43;10.13;;;4.70;99.90;;;;;;4995229;28;20453;-87
2020/12/18 07:50:10;;;;;;;13.93;10.90;;;4.50;99.90;;;;;;4987569;28;20489;-90
2020/12/18 07:52:37;;;;;;;13.03;10.07;;;4.80;99.90;;;;;;4978361;28;20937;-89
2020/12/18 07:55:15;;;;;;;14.70;10.97;;;4.90;99.90;;;;;;4992493;28;20444;-89
2020/12/18 07:57:41;;;;;;;14.00;10.70;;;4.80;99.90;;;;;;4994285;28;20454;-86
2020/12/18 08:00:20;;;;;;;17.20;10.90;;;4.70;99.90;;;;;;4996198;28;20461;-88
2020/12/18 08:02:47;;;;;;;14.63;10.27;;;5.00;99.90;;;;;;4996376;28;20472;-88
2020/12/18 08:05:23;;;;;;;16.43;11.97;;;5.20;99.90;;;;;;4996330;28;20449;-87
2020/12/18 08:07:51;;;;;;;14.10;12.03;;;5.00;99.90;;;;;;4990860;28;20485;-87
2020/12/18 08:10:17;;;;;;;16.37;11.37;;;5.10;99.90;;;;;;4984880;28;20572;-89
2020/12/18 08:12:50;;;;;;;14.80;11.70;;;5.20;99.90;;;;;;4986359;28;20439;-87
2020/12/18 08:15:16;;;;;;;19.00;12.53;;;5.40;99.90;;;;;;4982783;28;20863;-86
2020/12/18 08:17:45;;;;;;;21.23;12.57;;;5.70;99.90;;;;;;4987624;28;20568;-89
2020/12/18 08:20:14;;;;;;;16.40;12.40;;;5.40;99.90;;;;;;4984234;28;20947;-87
2020/12/18 08:22:45;;;;;;;19.33;12.60;;;5.50;99.90;;;;;;4981150;28;20454;-86
2020/12/18 08:25:14;;;;;;;18.37;12.80;;;5.40;99.90;;;;;;4986627;28;20448;-88
2020/12/18 08:27:49;;;;;;;16.23;11.60;;;5.80;99.90;;;;;;4981657;28;20481;-86
2020/12/18 08:30:17;;;;;;;25.63;11.73;;;5.60;99.90;;;;;;4957194;29;20494;-87
2020/12/18 08:32:52;;;;;;;15.57;11.80;;;5.70;99.90;;;;;;4956977;29;20455;-87
2020/12/18 08:35:21;;;;;;;16.30;11.77;;;5.60;99.90;;;;;;4957111;29;20462;-86
2020/12/18 08:37:48;;;;;;;13.93;10.57;;;5.50;99.90;;;;;;4952930;29;20447;-86
2020/12/18 08:40:21;;;;;;;13.00;10.60;;;6.00;99.90;;;;;;4956973;29;20455;-86
2020/12/18 08:43:01;;;;;;;12.03;10.60;;;6.10;99.90;;;;;;4956853;29;20882;-86
2020/12/18 08:45:28;;;;;;;16.10;11.23;;;6.30;99.90;;;;;;4956847;29;20469;-89
2020/12/18 08:47:54;;;;;;;14.30;11.23;;;5.70;99.90;;;;;;4956658;29;20955;-88
2020/12/18 08:50:23;;;;;;;12.43;10.27;;;6.30;99.90;;;;;;4956553;29;20514;-85
2020/12/18 08:52:49;;;;;;;14.93;10.77;;;6.30;99.90;;;;;;4955198;29;20455;-85
2020/12/18 08:55:21;;;;;;;15.43;10.63;;;6.30;99.90;;;;;;4956597;29;20458;-86
2020/12/18 08:57:48;;;;;;;13.60;10.57;;;6.50;99.90;;;;;;4956508;29;20447;-85
2020/12/18 09:00:15;;;;;;;12.80;10.50;;;6.80;99.90;;;;;;4953756;29;20928;-85
2020/12/18 09:02:44;;;;;;;11.03;8.67;;;6.80;99.90;;;;;;4956438;29;20829;-88
2020/12/18 09:05:17;;;;;;;13.43;9.40;;;6.90;99.90;;;;;;4956387;29;20456;-84
2020/12/18 09:07:48;;;;;;;12.30;9.10;;;7.10;99.90;;;;;;4955115;29;20931;-85
2020/12/18 09:10:25;;;;;;;12.00;10.20;;;7.10;99.90;;;;;;4956061;29;20538;-84
2020/12/18 09:12:52;;;;;;;10.13;9.13;;;7.20;99.90;;;;;;4956319;29;20790;-85
2020/12/18 09:15:22;;;;;;;14.53;9.67;;;7.20;99.90;;;;;;4956318;29;20514;-85
2020/12/18 09:17:59;;;;;;;11.40;9.30;;;8.00;99.90;;;;;;4956164;29;20536;-84
2020/12/18 09:20:26;;;;;;;11.57;9.20;;;8.90;99.90;;;;;;4956232;29;20458;-87
2020/12/18 09:22:59;;;;;;;11.00;9.67;;;9.90;99.90;;;;;;4955204;29;20455;-85
2020/12/18 09:25:26;;;;;;;12.40;9.40;;;10.40;99.90;;;;;;4955965;29;20455;-84
2020/12/18 09:27:57;;;;;;;13.20;10.40;;;11.00;99.90;;;;;;4956077;29;20452;-88
2020/12/18 09:30:25;;;;;;;9.57;8.57;;;11.40;99.90;;;;;;4955807;28;20502;-90
2020/12/18 09:33:07;;;;;;;9.57;8.60;;;11.80;99.90;;;;;;4955612;29;20941;-87
2020/12/18 09:35:40;;;;;;;11.17;8.00;;;12.50;99.90;;;;;;4961862;28;20501;-84
2020/12/18 09:38:08;;;;;;;10.43;8.80;;;12.70;99.90;;;;;;4961922;28;20470;-90
2020/12/18 09:40:34;;;;;;;11.27;8.43;;;;;;;;;;4955649;29;20473;-89
2020/12/18 09:43:02;;;;;;;9.03;8.13;;;13.10;99.90;;;;;;4963081;28;20615;-91
2020/12/18 09:45:29;;;;;;;8.60;7.50;;;;;;;;;;4975813;28;20462;-88
2020/12/18 09:47:55;;;;;;;7.90;7.10;;;;;;;;;;4975275;28;20458;-88
2020/12/18 09:50:22;;;;;;;7.50;6.80;;;;;;;;;;4967048;28;20489;-87
2020/12/18 09:52:49;;;;;;;8.10;6.93;;;;;;;;;;4973873;28;20451;-87
2020/12/18 09:55:16;;;;;;;7.50;6.70;;;13.80;99.90;;;;;;4974680;28;20505;-87
2020/12/18 09:57:42;;;;;;;6.80;6.10;;;;;;;;;;4974825;28;20458;-87
2020/12/18 10:00:09;;;;;;;6.27;5.77;;;13.90;99.90;;;;;;4974732;28;20462;-87
2020/12/18 10:02:35;;;;;;;5.87;5.30;;;;;;;;;;4964678;28;20455;-87
2020/12/18 10:05:02;;;;;;;6.30;4.73;;;;;;;;;;4974707;28;20446;-87
2020/12/18 10:07:29;;;;;;;5.50;5.00;;;;;;;;;;4973429;28;20458;-87
2020/12/18 10:09:55;;;;;;;5.70;4.73;;;12.30;99.90;;;;;;4974395;28;20506;-87
2020/12/18 10:12:22;;;;;;;4.70;4.30;;;12.10;99.90;;;;;;4974124;28;20895;-87
2020/12/18 10:14:49;;;;;;;5.57;5.00;;;;;;;;;;4974461;28;20462;-87
2020/12/18 10:17:15;;;;;;;5.67;4.40;;;;;;;;;;4974420;28;20505;-86
2020/12/18 10:19:42;;;;;;;6.37;4.50;;;;;;;;;;4974461;28;20488;-87
2020/12/18 10:22:08;;;;;;;5.30;4.77;;;;;;;;;;4973340;28;20852;-87
2020/12/18 10:24:35;;;;;;;5.73;4.77;;;;;;;;;;4974335;28;20442;-86
2020/12/18 10:27:01;;;;;;;4.93;4.53;;;;;;;;;;4974330;28;20451;-89
2020/12/18 10:29:28;;;;;;;7.93;4.57;;;12.70;99.90;;;;;;4974342;28;20506;-89
2020/12/18 10:31:56;;;;;;;4.17;3.77;;;12.80;99.90;;;;;;4969375;28;20511;-89
2020/12/18 10:34:23;;;;;;;5.10;3.70;;;;;;;;;;4974265;28;20462;-91
2020/12/18 10:36:51;;;;;;;6.03;4.23;;;13.10;99.90;;;;;;4974339;28;20447;-88
2020/12/18 10:39:17;;;;;;;4.23;3.83;;;;;;;;;;4973869;28;20954;-89
2020/12/18 10:41:44;;;;;;;4.80;4.27;;;;;;;;;;4974575;28;20450;-89
2020/12/18 10:44:11;;;;;;;5.03;4.53;;;;;;;;;;4974227;28;20463;-88
2020/12/18 10:46:40;;;;;;;4.80;4.23;;;13.50;99.90;;;;;;4974484;28;20459;-88
2020/12/18 10:49:08;;;;;;;5.23;4.40;;;13.50;99.90;;;;;;4974764;28;20853;-89
2020/12/18 10:51:38;;;;;;;4.80;4.00;;;13.70;99.90;;;;;;4974389;28;20453;-88
2020/12/18 10:54:04;;;;;;;5.63;4.40;;;;;;;;;;4973245;28;20450;-88
2020/12/18 10:56:31;;;;;;;4.07;3.67;;;;;;;;;;4972601;28;20478;-90
2020/12/18 10:58:58;;;;;;;4.13;3.73;;;;;;;;;;4965499;28;20528;-91
2020/12/18 11:01:24;;;;;;;4.87;4.37;;;;;;;;;;4970904;28;20454;-89
2020/12/18 11:03:51;;;;;;;5.30;4.80;;;14.00;99.90;;;;;;4956046;28;20464;-87
2020/12/18 11:06:18;;;;;;;5.00;4.60;;;;;;;;;;4954370;29;20463;-88
2020/12/18 11:08:44;;;;;;;4.60;4.20;;;;;;;;;;4963434;28;20835;-88
2020/12/18 11:11:14;;;;;;;5.10;4.30;;;14.10;99.90;;;;;;4986047;28;20470;-88
2020/12/18 11:13:43;;;;;;;4.27;3.83;;;;;;;;;;4986031;28;20450;-89
2020/12/18 11:16:11;;;;;;;4.73;4.30;;;14.20;99.90;;;;;;4984890;28;20934;-89
2020/12/18 11:18:38;;;;;;;5.40;4.50;;;;;;;;;;4981230;28;20447;-87
2020/12/18 11:21:06;;;;;;;4.90;4.40;;;13.60;99.90;;;;;;4981865;28;20453;-89
2020/12/18 11:23:35;;;;;;;5.70;4.27;;;;;;;;;;4980747;28;20811;-88
2020/12/18 11:26:02;;;;;;;5.47;4.03;;;;;;;;;;4984310;28;21029;-88
2020/12/18 11:28:28;;;;;;;4.33;3.90;;;14.20;99.90;;;;;;4981672;28;20441;-89
2020/12/18 11:30:55;;;;;;;4.47;4.07;;;;;;;;;;4983060;28;20496;-89
2020/12/18 11:33:22;;;;;;;7.40;4.10;;;;;;;;;;4983988;28;20826;-90
2020/12/18 11:35:48;;;;;;;4.80;4.40;;;;;;;;;;4984572;28;20449;-90
2020/12/18 11:38:16;;;;;;;6.00;4.30;;;13.50;99.90;;;;;;4978232;28;20466;-89
2020/12/18 11:40:42;;;;;;;5.33;4.50;;;;;;;;;;4984918;28;20443;-89
2020/12/18 11:43:09;;;;;;;4.63;4.23;;;;;;;;;;4984549;28;20504;-88
2020/12/18 11:45:35;;;;;;;5.10;4.60;;;14.10;99.90;;;;;;4983245;28;20865;-88
2020/12/18 11:48:02;;;;;;;4.20;3.80;;;;;;;;;;4980867;28;20450;-87
2020/12/18 11:50:28;;;;;;;4.43;3.73;;;;;;;;;;4979662;28;20489;-89
2020/12/18 11:52:56;;;;;;;4.30;3.90;;;14.80;99.90;;;;;;4986329;28;20457;-88
2020/12/18 11:55:23;;;;;;;5.53;3.60;;;14.60;99.90;;;;;;4988300;28;20859;-89
2020/12/18 11:57:50;;;;;;;4.40;4.00;;;;;;;;;;4981698;28;20451;-91
2020/12/18 12:00:19;;;;;;;3.60;3.30;;;;;;;;;;4980136;28;20485;-88
2020/12/18 12:02:47;;;;;;;4.37;3.97;;;14.30;99.90;;;;;;4971225;28;20505;-88
2020/12/18 12:05:14;;;;;;;3.60;3.30;;;;;;;;;;4976901;28;20450;-88
2020/12/18 12:07:40;;;;;;;6.37;3.87;;;;;;;;;;4975878;28;20446;-88
2020/12/18 12:10:07;;;;;;;4.50;4.10;;;;;;;;;;4976448;28;20506;-87
2020/12/18 12:12:34;;;;;;;4.73;3.83;;;14.90;99.90;;;;;;4976858;28;20454;-89
2020/12/18 12:15:01;;;;;;;4.67;3.53;;;;;;;;;;4976466;28;20529;-88
2020/12/18 12:17:28;;;;;;;2.77;2.50;;;14.80;99.90;;;;;;4976687;28;20827;-87
2020/12/18 12:19:55;;;;;;;4.27;3.47;;;;;;;;;;4976697;28;20454;-87
2020/12/18 12:22:23;;;;;;;3.00;2.70;;;;;;;;;;4975178;28;20512;-86
2020/12/18 12:24:49;;;;;;;3.33;3.03;;;;;;;;;;4976681;28;20871;-88
2020/12/18 12:27:16;;;;;;;3.87;2.60;;;;;;;;;;4976597;28;20442;-86
2020/12/18 12:29:43;;;;;;;3.00;2.70;;;14.30;99.90;;;;;;4976693;28;20490;-87
2020/12/18 12:32:09;;;;;;;2.83;2.63;;;14.60;99.90;;;;;;4976424;28;20461;-86
2020/12/18 12:34:36;;;;;;;2.97;2.67;;;;;;;;;;4976182;28;20462;-87
2020/12/18 12:37:02;;;;;;;3.20;2.90;;;14.20;99.90;;;;;;4975355;28;20468;-88
2020/12/18 12:39:28;;;;;;;4.00;3.17;;;13.90;99.90;;;;;;4976289;28;20457;-86
2020/12/18 12:41:55;;;;;;;4.63;3.50;;;15.00;99.90;;;;;;4976304;28;20454;-88
2020/12/18 12:44:21;;;;;;;3.03;2.60;;;;;;;;;;4984330;28;20511;-86
2020/12/18 12:46:48;;;;;;;3.60;3.30;;;15.50;99.90;;;;;;4993874;28;20946;-84
2020/12/18 12:49:15;;;;;;;3.60;2.90;;;15.60;99.90;;;;;;4983692;28;20480;-85
2020/12/18 12:51:41;;;;;;;6.30;3.60;;;;;;;;;;4991277;28;20446;-87
2020/12/18 12:54:08;;;;;;;5.17;3.80;;;;;;;;;;4994349;28;20445;-88
2020/12/18 12:56:34;;;;;;;3.70;2.93;;;;;;;;;;4987308;28;20450;-88
2020/12/18 12:59:01;;;;;;;2.93;2.63;;;;;;;;;;4981550;28;20462;-87
2020/12/18 13:01:32;;;;;;;4.17;3.60;;;14.90;99.90;;;;;;4986448;28;20506;-85
2020/12/18 13:03:59;;;;;;;5.90;3.90;;;15.40;99.90;;;;;;4985075;28;20457;-86
2020/12/18 13:06:26;;;;;;;5.80;4.10;;;15.90;99.90;;;;;;4985875;28;20454;-92
2020/12/18 13:08:52;;;;;;;3.90;2.90;;;15.90;99.90;;;;;;4982274;28;20474;-88
2020/12/18 13:11:19;;;;;;;4.00;3.40;;;15.90;99.90;;;;;;4978799;28;20800;-88
2020/12/18 13:13:45;;;;;;;4.43;3.27;;;;;;;;;;4981782;28;20446;-88
2020/12/18 13:16:12;;;;;;;4.07;3.03;;;;;;;;;;4985207;28;20453;-85
2020/12/18 13:18:39;;;;;;;3.20;2.60;;;;;;;;;;4995459;28;20461;-89